< < Back
Terminal Aerodrome Forecast


Current Version              Previous Versions:   1  2  3  4  5  6  7  8  9  

Terminal Aerodrome Forecast

522
FTUS42 KFFC 280520
TAFCSG
TAF
KCSG 280520Z 2806/0106 02007KT P6SM FEW250
     FM280900 05006KT P6SM SCT110
     FM281500 08011G18KT P6SM SCT050 BKN100
     FM281800 09010G15KT P6SM BKN050
     FM282100 09008KT P6SM OVC035
     FM010100 06005KT 4SM -RA BKN015=

Latest METAR

345
SAUS70 KWBC 280500
MTRCSG
METAR KCSG 280451Z AUTO 01003KT 10SM CLR 04/M08 A3043 RMK AO2 SLP304
T00391078 401331011


USA.gov is the U.S. government's official web portal to all federal, state and local government web resources and services.